Aviation Digital Data Service (ADDS)

Output produced by TAFs form (1330 UTC 25 September 2017)
found at http://www.aviationweather.gov/adds/tafs/
 
METAR text: RJTO 250800Z VRB02KT 9999 FEW020 24/19 Q1013
Conditions at: RJTO (OSHIMA AIRPORT , JP) observed 0800 UTC 25 September 2017
Temperature: 24.0°C (75°F)
Dewpoint: 19.0°C (66°F) [RH = 74%]
Pressure (altimeter): 29.91 inches Hg (1013.0 mb)
Winds: variable direction winds at 2 MPH (2 knots; 1.0 m/s)
Visibility: 6 or more miles (10+ km)
Ceiling: at least 12,000 feet AGL
Clouds: few clouds at 2000 feet AGL
Weather: no significant weather observed at this time